• Join FlightAware (Why Join?)
  • Login
  • US Flag 
02:40AM EDT


 

Airport Tracker/Info


-or-


 

Live Flight TrackerFlight Track Log ✈ ASH3726 ✈ 26-Jun-2013 ✈ KIND - KIAD

Flight Track Log - Related Links

Times and Time Zones

All times are in EDT time to prevent confusion due to time zone crossing. See the ASH3726 flight status page for this flight to view local times or setup timezone preferences in your user account.

Time Position Orientation Groundspeed Altitude Reporting Facility
EDT Latitude Longitude Course Direction KTS MPH feet Rate Location/Type
02:50PM 39.6833 -86.3167 218° Southwest 147 169 2,400  Level Indianapolis TRACON
02:51PM 39.6500 -86.3000 159° South 219 252 4,300 1,620 Climbing Indianapolis TRACON
02:52PM 39.6069 -86.2381 132° Southeast 230 265 5,700 2,040 Climbing Indianapolis Center
02:53PM 39.8041 -85.6420 78° East  Level FlightAware Approximate
02:53PM 39.6008 -86.1347 94° East 299 344 8,400  Level Indianapolis Center
02:54PM 39.8289 -85.4809 79° East  Level FlightAware Approximate
02:54PM 39.6406 -86.0081 68° East 318 366 11,000  Level Indianapolis Center
02:55PM 39.6803 -85.8864 67° East 370 426 12,600 2,040 Climbing Indianapolis Center
02:56PM 39.7200 -85.7600 68° East 380 437 15,300 2,460 Climbing Indianapolis Center
02:57PM 39.7567 -85.6453 67° East 351 404 17,700 1,380 Climbing Indianapolis Center
02:58PM 39.7972 -85.5211 67° East 374 430 18,200 1,140 Climbing Indianapolis Center
02:59PM 39.8389 -85.3897 68° East 391 450 20,100 2,220 Climbing Indianapolis Center
03:00PM 39.9117 -85.2544 55° Northeast 379 436 22,900 1,980 Climbing Indianapolis Center
03:01PM 39.9789 -85.1506 50° Northeast 376 433 24,200 1,320 Climbing Indianapolis Center
03:02PM 40.0664 -85.0703 35° Northeast 384 442 25,700 1,260 Climbing Indianapolis Center
03:03PM 40.1553 -84.9886 35° Northeast 391 450 26,900 960 Climbing Indianapolis Center
03:04PM 40.2267 -84.8578 54° Northeast 414 476 27,700 420 Climbing Indianapolis Center
03:05PM 40.2189 -84.7003 94° East 429 494 27,800 420 Climbing Indianapolis Center
03:06PM 40.2133 -84.5328 92° East 452 520 28,600 780 Climbing Indianapolis Center
03:07PM 40.2075 -84.3647 93° East 457 526 29,500 900 Climbing Indianapolis Center
03:08PM 40.2006 -84.1939 93° East 463 533 30,500 960 Climbing Indianapolis Center
03:09PM 40.1944 -84.0261 93° East 461 531 31,500 1,020 Climbing Indianapolis Center
03:10PM 40.1867 -83.8583 93° East 457 526 32,700 720 Climbing Indianapolis Center
03:11PM 40.1794 -83.6919 93° East 453 521 33,000 120 Climbing Indianapolis Center
03:12PM 40.1653 -83.4967 95° East 455 524 33,000  Level Indianapolis Center
03:13PM 40.1406 -83.3311 101° East 455 524 33,000  Level Indianapolis Center
03:14PM 40.1156 -83.1644 101° East 458 527 33,000  Level Indianapolis Center
03:15PM 40.0892 -83.0000 102° East 458 527 33,000  Level Indianapolis Center
03:16PM 40.0639 -82.8361 101° East 455 524 33,000  Level Indianapolis Center
03:17PM 40.0383 -82.6725 101° East 455 524 33,000  Level Indianapolis Center
03:18PM 40.0125 -82.5083 102° East 457 526 33,000  Level Indianapolis Center
03:20PM 39.9853 -82.3433 102° East 460 529 33,000  Level Indianapolis Center
03:21PM 39.9594 -82.1800 102° East 458 527 33,000  Level Indianapolis Center
03:22PM 39.9314 -82.0158 103° East 461 531 33,000  Level Indianapolis Center
03:23PM 39.9000 -81.8236 102° East 461 531 33,000  Level Indianapolis Center
03:24PM 39.8725 -81.6581 102° East 464 534 33,000  Level Indianapolis Center
03:25PM 39.8447 -81.4908 102° East 467 537 33,000  Level Indianapolis Center
03:26PM 39.8164 -81.3206 102° East 469 540 33,000  Level Indianapolis Center
03:27PM 39.7872 -81.1528 103° East 474 545 33,000  Level Indianapolis Center
03:28PM 39.7469 -80.9892 108° East 476 548 33,000  Level Indianapolis Center
03:29PM 39.6483 -80.8786 139° Southeast 470 541 33,000  Level Indianapolis Center
03:30PM 39.5383 -80.7892 148° Southeast 467 537 33,000 -180 Level Indianapolis Center
03:31PM 39.4517 -80.6597 131° Southeast 475 547 32,700 -780 Descending Indianapolis Center
03:32PM 39.4147 -80.4506 103° East 506 582 31,500 -1,080 Descending Indianapolis Center
03:33PM 39.4539 -80.2792 73° East 501 577 30,500 -1,020 Descending Indianapolis Center
03:34PM 39.4956 -80.1103 72° East 495 570 29,500 -660 Descending Indianapolis Center
03:35PM 39.5483 -79.9100 71° East 467 537 29,000 -420 Descending Cleveland Center
03:36PM 39.5328 -79.7139 96° East 456 525 28,600 -780 Descending Washington Center
03:37PM 39.5047 -79.5536 103° East 463 533 27,400 -840 Descending Washington Center
03:38PM 39.4764 -79.3961 103° East 446 513 27,000 -240 Descending Washington Center
03:39PM 39.4497 -79.2494 103° East 464 534 27,000 -480 Level Washington Center
03:40PM 39.4381 -79.0850 95° East 458 527 26,100 -1,320 Descending Washington Center
03:41PM 39.4322 -78.9181 93° East 443 510 24,500 -1,620 Descending Washington Center
03:42PM 39.4256 -78.7781 93° East 381 438 23,000 -1,980 Descending Washington Center
03:43PM 39.4208 -78.6408 93° East 373 429 20,600 -2,760 Descending Washington Center
03:44PM 39.4139 -78.5089 94° East 370 426 17,500 -2,880 Descending Washington Center
03:45PM 39.4106 -78.3797 92° East 365 420 14,900 -2,460 Descending Washington Center
03:46PM 39.4050 -78.2586 93° East 359 413 12,600 -2,340 Descending Washington Center
03:47PM 39.3969 -78.1431 95° East 344 396 10,200 -1,260 Descending Washington Center
03:48PM 39.3908 -78.0381 94° East 316 364 10,100 -60 Descending Washington Center
03:49PM 39.3189 -77.9925 154° Southeast 260 299 10,100  Level Washington Center
03:50PM 39.2417 -77.9928 180° South 246 283 10,100  Level Washington Center
03:51PM 39.1667 -77.9931 180° South 253 291 10,100 -180 Level Washington Center
03:52PM 39.0897 -77.9825 174° South 272 313 9,800 -660 Descending Washington Center
03:53PM 39.0414 -77.9033 128° Southeast 260 299 8,900 -1,200 Descending Washington Center
03:54PM 39.0031 -77.8300 124° Southeast 246 283 7,500 -1,260 Descending Washington Center
03:55PM 38.9708 -77.7622 121° Southeast 246 283 6,400 -480 Descending Washington Center
03:58PM 39.0167 -77.5833 72° East 251 289 6,000 -480 Descending Potomac TRACON
03:59PM 39.0833 -77.5667 11° North 227 261 4,800 -1,440 Descending Potomac TRACON
04:00PM 39.1333 -77.5667 360° North 238 274 3,100 -1,200 Descending Potomac TRACON
04:01PM 39.1500 -77.4833 76° East 232 267 2,500 -600 Descending Potomac TRACON
04:02PM 39.1167 -77.4333 131° Southeast 221 254 2,000 -300 Descending Potomac TRACON
04:03PM 39.0667 -77.4333 180° South 211 243 2,000  Level Potomac TRACON